KSBY

Salisbury-Ocean City Wicomico Regional Airport

Salisbury, Maryland, USA
METAR KSBY 181954Z 33009KT 10SM CLR 09/03 A3007 RMK AO2 SLP184 T00890033
Observed Flight Rules
Jan-18 @ 19:54 UTC (an hour ago) Visual Flight Rules
Wind Visibility Clouds
330° at 9 knots 10 miles
  • Clear skies
Temperatures Readings
Current 9°C / 48°F
Dewpoint 3°C / 37°F
Humidity 66%
Altimeter 30.07" Hg
Pressure 1018.4 hPa
Elevation 19
METAR KSBY 181954Z 33009KT 10SM CLR 09/03 A3007 RMK AO2 SLP184 T00890033
Observed Flight Rules
Jan-18 @ 19:54 UTC
(an hour ago)
VFR
Wind Visibility
330° at 9 knots 10 miles
Clouds
  • Clear skies
Temperature Dewpoint
9°C / 48°F 3°C / 37°F
Humidity Altimeter Pressure
66% 30.07" Hg 1018.4 hPa